createdAt,value
2018-07-20T00:00:34.788Z,5.67
2018-07-20T00:03:03.444Z,5.53
2018-07-20T00:05:31.979Z,5.73
2018-07-20T00:08:00.574Z,6.00
2018-07-20T00:10:29.099Z,7.10
2018-07-20T00:12:57.749Z,6.17
2018-07-20T00:15:26.249Z,7.10
2018-07-20T00:17:54.815Z,6.67
2018-07-20T00:20:23.288Z,6.87
2018-07-20T00:22:51.887Z,6.47
2018-07-20T00:25:20.468Z,7.63
2018-07-20T00:27:49.118Z,7.33
2018-07-20T00:30:17.650Z,7.17
2018-07-20T00:32:46.227Z,7.27
2018-07-20T00:35:14.854Z,6.67
2018-07-20T00:37:43.489Z,6.67
2018-07-20T00:40:11.965Z,7.07
2018-07-20T00:42:40.573Z,7.17
2018-07-20T00:45:09.146Z,6.87
2018-07-20T00:47:37.665Z,7.00
2018-07-20T00:50:06.971Z,7.53
2018-07-20T00:52:35.709Z,7.53
2018-07-20T00:55:04.305Z,8.23
2018-07-20T00:57:32.810Z,7.10
2018-07-20T01:00:01.362Z,8.03
2018-07-20T01:02:29.936Z,7.97
2018-07-20T01:04:58.503Z,7.80
2018-07-20T01:07:27.057Z,7.83
2018-07-20T01:09:55.677Z,9.13
2018-07-20T01:12:24.328Z,8.27
2018-07-20T01:14:52.895Z,8.40
2018-07-20T01:17:21.392Z,7.80
2018-07-20T01:19:49.988Z,8.20
2018-07-20T01:22:18.556Z,7.10
2018-07-20T01:24:47.239Z,8.90
2018-07-20T01:27:15.859Z,9.03
2018-07-20T01:29:44.450Z,9.50
2018-07-20T01:32:12.984Z,8.33
2018-07-20T01:34:41.500Z,7.63
2018-07-20T01:37:10.078Z,8.53
2018-07-20T01:39:38.635Z,7.93
2018-07-20T01:42:07.114Z,8.43
2018-07-20T01:44:35.736Z,8.97
2018-07-20T01:47:04.309Z,8.57
2018-07-20T01:49:32.877Z,8.53
2018-07-20T01:52:01.450Z,8.57
2018-07-20T01:54:30.168Z,8.00
2018-07-20T01:56:58.710Z,8.37
2018-07-20T01:59:27.243Z,8.87
2018-07-20T02:01:55.847Z,8.70
2018-07-20T02:04:24.477Z,8.70
2018-07-20T02:06:53.095Z,8.67
2018-07-20T02:09:21.609Z,8.60
2018-07-20T02:11:50.124Z,8.80
2018-07-20T02:14:18.688Z,9.13
2018-07-20T02:16:47.276Z,8.87
2018-07-20T02:19:15.799Z,9.03
2018-07-20T02:21:44.381Z,7.73
2018-07-20T02:24:13.012Z,8.93
2018-07-20T02:26:41.567Z,8.47
2018-07-20T02:29:10.162Z,8.47
2018-07-20T02:31:38.707Z,8.07
2018-07-20T02:34:07.814Z,8.03
2018-07-20T02:36:36.406Z,7.83
2018-07-20T02:39:08.595Z,7.73
2018-07-20T02:41:37.170Z,7.67
2018-07-20T02:44:05.765Z,8.63
2018-07-20T02:46:34.314Z,7.93
2018-07-20T02:49:02.857Z,8.27
2018-07-20T02:51:31.440Z,7.63
2018-07-20T02:54:00.028Z,7.50
2018-07-20T02:56:28.635Z,7.37
2018-07-20T02:58:57.264Z,8.17
2018-07-20T03:01:25.800Z,7.80
2018-07-20T03:03:54.330Z,7.17
2018-07-20T03:06:22.862Z,7.23
2018-07-20T03:08:51.393Z,8.00
2018-07-20T03:11:19.959Z,8.07
2018-07-20T03:13:48.671Z,7.97
2018-07-20T03:16:17.299Z,7.33
2018-07-20T03:18:45.799Z,9.43
2018-07-20T03:21:14.342Z,8.07
2018-07-20T03:23:43.303Z,8.20
2018-07-20T03:26:11.820Z,8.70
2018-07-20T03:28:40.367Z,7.40
2018-07-20T03:31:08.939Z,7.90
2018-07-20T03:33:37.486Z,8.53
2018-07-20T03:36:06.029Z,8.63
2018-07-20T03:38:34.545Z,8.63
2018-07-20T03:41:03.077Z,8.87
2018-07-20T03:43:31.684Z,8.40
2018-07-20T03:46:00.254Z,8.63
2018-07-20T03:48:28.769Z,8.30
2018-07-20T03:50:57.305Z,8.67
2018-07-20T03:53:25.943Z,8.53
2018-07-20T03:55:54.621Z,8.17
2018-07-20T03:58:23.171Z,8.47
2018-07-20T04:00:51.705Z,8.77
2018-07-20T04:03:20.002Z,8.57
2018-07-20T04:05:48.624Z,8.83
2018-07-20T04:08:17.236Z,8.83
2018-07-20T04:10:45.754Z,8.53
2018-07-20T04:13:14.006Z,9.10
2018-07-20T04:15:42.636Z,8.00
2018-07-20T04:18:11.160Z,8.50
2018-07-20T04:20:40.638Z,9.40
2018-07-20T04:23:09.338Z,8.93
2018-07-20T04:25:37.854Z,8.63
2018-07-20T04:28:06.403Z,8.40
2018-07-20T04:30:34.921Z,9.00
2018-07-20T04:33:03.466Z,8.80
2018-07-20T04:35:32.117Z,9.57
2018-07-20T04:38:00.683Z,8.93
2018-07-20T04:40:28.960Z,8.23
2018-07-20T04:42:57.699Z,7.60
2018-07-20T04:45:26.341Z,8.87
2018-07-20T04:47:55.320Z,8.03
2018-07-20T04:50:24.182Z,9.17
2018-07-20T04:52:53.117Z,8.27
2018-07-20T04:55:21.683Z,8.27
2018-07-20T04:57:49.902Z,8.70
2018-07-20T05:00:18.490Z,8.53
2018-07-20T05:02:47.238Z,7.87
2018-07-20T05:05:15.826Z,8.60
2018-07-20T05:07:44.599Z,8.63
2018-07-20T05:10:13.203Z,8.97
2018-07-20T05:12:41.788Z,7.87
2018-07-20T05:15:10.340Z,7.97
2018-07-20T05:17:38.834Z,8.13
2018-07-20T05:20:07.464Z,7.33
2018-07-20T05:22:36.090Z,7.70
2018-07-20T05:25:04.659Z,8.17
2018-07-20T05:27:33.173Z,7.93
2018-07-20T05:30:01.702Z,8.17
2018-07-20T05:32:30.389Z,7.90
2018-07-20T05:34:58.878Z,8.17
2018-07-20T05:37:27.423Z,7.40
2018-07-20T05:39:56.011Z,8.50
2018-07-20T05:42:24.575Z,8.27
2018-07-20T05:44:53.122Z,7.70
2018-07-20T05:47:21.621Z,7.73
2018-07-20T05:49:50.138Z,7.90
2018-07-20T05:52:18.685Z,8.00
2018-07-20T05:54:47.234Z,9.07
2018-07-20T05:57:16.102Z,8.03
2018-07-20T05:59:44.715Z,9.07
2018-07-20T06:02:14.117Z,7.63
2018-07-20T06:04:42.757Z,8.93
2018-07-20T06:07:11.386Z,8.40
2018-07-20T06:09:39.866Z,8.70
2018-07-20T06:12:08.923Z,8.27
2018-07-20T06:14:37.439Z,8.47
2018-07-20T06:17:06.199Z,8.20
2018-07-20T06:19:34.754Z,8.60
2018-07-20T06:22:03.233Z,8.57
2018-07-20T06:24:31.785Z,8.33
2018-07-20T06:27:00.302Z,7.73
2018-07-20T06:29:28.966Z,7.70
2018-07-20T06:31:57.387Z,7.87
2018-07-20T06:34:26.066Z,8.27
2018-07-20T06:36:54.603Z,7.50
2018-07-20T06:39:23.181Z,7.87
2018-07-20T06:41:51.722Z,8.13
2018-07-20T06:44:21.220Z,8.30
2018-07-20T06:46:49.793Z,8.10
2018-07-20T06:49:18.355Z,8.10
2018-07-20T06:51:46.938Z,7.67
2018-07-20T06:54:15.566Z,8.30
2018-07-20T06:56:44.110Z,7.80
2018-07-20T06:59:12.720Z,8.37
2018-07-20T07:01:41.295Z,8.20
2018-07-20T07:04:09.902Z,8.13
2018-07-20T07:06:38.427Z,8.57
2018-07-20T07:09:08.715Z,8.77
2018-07-20T07:11:37.585Z,8.33
2018-07-20T07:14:06.552Z,7.90
2018-07-20T07:16:35.234Z,8.83
2018-07-20T07:19:04.216Z,8.30
2018-07-20T07:21:32.824Z,7.87
2018-07-20T07:24:01.701Z,6.90
2018-07-20T07:26:30.366Z,6.90
2018-07-20T07:28:59.051Z,7.80
2018-07-20T07:31:27.774Z,7.13
2018-07-20T07:33:56.383Z,7.27
2018-07-20T07:36:24.909Z,7.60
2018-07-20T07:38:53.406Z,7.00
2018-07-20T07:41:21.913Z,6.27
2018-07-20T07:43:50.526Z,6.23
2018-07-20T07:46:19.428Z,5.90
2018-07-20T07:48:47.958Z,5.00
2018-07-20T07:51:16.497Z,5.53
2018-07-20T07:53:45.077Z,4.87
2018-07-20T07:56:13.576Z,5.90
2018-07-20T07:58:42.104Z,6.30
2018-07-20T08:01:10.595Z,5.17
2018-07-20T08:03:39.114Z,4.67
2018-07-20T08:06:07.721Z,5.30
2018-07-20T08:08:36.244Z,4.63
2018-07-20T08:11:04.860Z,3.87
2018-07-20T08:13:33.658Z,3.57
2018-07-20T08:16:05.054Z,3.23
2018-07-20T08:18:33.605Z,3.73
2018-07-20T08:21:02.143Z,3.10
2018-07-20T08:30:17.013Z,3.13
2018-07-20T08:32:45.581Z,3.93
2018-07-20T08:35:14.235Z,3.00
2018-07-20T08:37:42.723Z,2.53
2018-07-20T08:40:11.232Z,2.87
2018-07-20T08:42:39.881Z,2.60
2018-07-20T08:45:08.573Z,2.87
2018-07-20T08:47:37.081Z,2.20
2018-07-20T08:50:06.232Z,2.70
2018-07-20T08:54:04.316Z,3.50
2018-07-20T08:56:32.939Z,2.50
2018-07-20T08:59:01.514Z,2.20
2018-07-20T09:01:30.156Z,2.60
2018-07-20T09:03:58.772Z,3.20
2018-07-20T09:06:27.323Z,3.20
2018-07-20T09:08:55.939Z,2.50
2018-07-20T09:11:24.467Z,2.53
2018-07-20T09:13:53.114Z,2.73
2018-07-20T09:16:21.585Z,2.97
2018-07-20T09:18:50.190Z,3.30
2018-07-20T09:21:18.713Z,2.93
2018-07-20T09:23:47.455Z,2.90
2018-07-20T09:26:15.954Z,2.40
2018-07-20T09:28:44.435Z,2.30
2018-07-20T09:31:13.008Z,2.40
2018-07-20T09:33:41.694Z,2.40
2018-07-20T09:36:10.241Z,2.27
2018-07-20T09:38:38.855Z,2.17
2018-07-20T09:41:07.408Z,2.23
2018-07-20T09:43:36.006Z,2.33
2018-07-20T09:46:04.621Z,2.43
2018-07-20T09:48:33.126Z,1.97
2018-07-20T09:51:01.648Z,2.30
2018-07-20T09:53:30.225Z,1.90
2018-07-20T09:55:58.747Z,1.83
2018-07-20T09:58:27.287Z,2.00
2018-07-20T10:00:55.895Z,2.03
2018-07-20T10:03:24.463Z,1.80
2018-07-20T10:05:52.968Z,2.07
2018-07-20T10:08:21.511Z,1.83
2018-07-20T10:10:50.754Z,1.83
2018-07-20T10:13:19.760Z,1.80
2018-07-20T10:15:48.344Z,1.93
2018-07-20T10:18:17.204Z,1.97
2018-07-20T10:20:45.702Z,1.70
2018-07-20T10:23:14.196Z,1.80
2018-07-20T10:25:42.958Z,1.73
2018-07-20T10:28:11.446Z,1.70
2018-07-20T10:30:39.986Z,1.90
2018-07-20T10:33:08.587Z,2.07
2018-07-20T10:35:37.116Z,1.70
2018-07-20T10:38:05.919Z,2.10
2018-07-20T10:40:34.455Z,1.70
2018-07-20T10:43:03.113Z,2.27
2018-07-20T10:45:31.579Z,1.90
2018-07-20T10:48:00.085Z,2.10
2018-07-20T10:50:28.580Z,1.90
2018-07-20T10:52:57.249Z,2.07
2018-07-20T10:55:25.736Z,2.13
2018-07-20T10:57:55.465Z,2.13
2018-07-20T11:00:23.960Z,2.00
2018-07-20T11:02:52.529Z,2.43
2018-07-20T11:05:21.014Z,2.10
2018-07-20T11:07:49.506Z,2.17
2018-07-20T11:10:18.013Z,2.00
2018-07-20T11:12:46.538Z,2.40
2018-07-20T11:15:15.138Z,2.57
2018-07-20T11:17:43.581Z,2.50
2018-07-20T11:20:12.072Z,2.13
2018-07-20T11:22:40.554Z,3.07
2018-07-20T11:25:09.023Z,2.30
2018-07-20T11:27:37.240Z,2.23
2018-07-20T11:30:06.189Z,2.30
2018-07-20T11:32:34.686Z,2.13
2018-07-20T11:35:03.168Z,1.83
2018-07-20T11:37:31.649Z,1.97
2018-07-20T11:40:00.121Z,1.70
2018-07-20T11:42:28.598Z,2.10
2018-07-20T11:44:57.079Z,2.07
2018-07-20T11:47:25.527Z,1.77
2018-07-20T11:49:54.084Z,1.83
2018-07-20T11:52:22.575Z,1.93
2018-07-20T11:54:51.070Z,1.70
2018-07-20T11:57:19.597Z,1.87
2018-07-20T11:59:48.134Z,2.20
2018-07-20T12:02:16.596Z,2.60
2018-07-20T12:04:45.155Z,1.93
2018-07-20T12:07:13.701Z,1.70
2018-07-20T12:09:42.292Z,1.93
2018-07-20T12:12:10.803Z,2.03
2018-07-20T12:14:39.402Z,2.23
2018-07-20T12:17:07.952Z,2.13
2018-07-20T12:19:36.421Z,1.83
2018-07-20T12:22:04.872Z,2.13
2018-07-20T12:24:33.398Z,2.30
2018-07-20T12:27:01.935Z,2.23
2018-07-20T12:29:30.437Z,2.00
2018-07-20T12:31:59.041Z,1.87
2018-07-20T12:34:27.680Z,2.23
2018-07-20T12:36:56.165Z,2.57
2018-07-20T12:39:24.689Z,2.07
2018-07-20T12:41:53.195Z,2.03
2018-07-20T12:44:21.666Z,2.20
2018-07-20T12:46:50.164Z,2.40
2018-07-20T12:49:18.630Z,2.77
2018-07-20T12:51:47.131Z,2.57
2018-07-20T12:54:15.640Z,2.10
2018-07-20T12:56:44.109Z,2.20
2018-07-20T12:59:12.638Z,2.00
2018-07-20T13:01:41.144Z,2.70
2018-07-20T13:04:09.757Z,2.43
2018-07-20T13:06:38.219Z,2.40
2018-07-20T13:09:09.042Z,3.50
2018-07-20T13:11:37.511Z,4.00
2018-07-20T13:14:06.031Z,2.77
2018-07-20T13:16:34.558Z,3.30
2018-07-20T13:19:03.043Z,3.37
2018-07-20T13:21:31.501Z,3.17
2018-07-20T13:24:00.100Z,2.73
2018-07-20T13:26:28.566Z,2.93
2018-07-20T13:28:57.070Z,3.20
2018-07-20T13:31:25.545Z,2.70
2018-07-20T13:33:54.118Z,2.80
2018-07-20T13:36:22.568Z,2.77
2018-07-20T13:38:51.327Z,3.07
2018-07-20T13:41:19.790Z,2.80
2018-07-20T13:43:48.316Z,2.77
2018-07-20T13:46:16.878Z,2.67
2018-07-20T13:48:45.760Z,2.33
2018-07-20T13:51:14.270Z,2.57
2018-07-20T13:53:42.856Z,2.80
2018-07-20T13:56:11.370Z,2.67
2018-07-20T13:58:39.841Z,2.73
2018-07-20T14:01:09.380Z,2.23
2018-07-20T14:03:37.952Z,2.87
2018-07-20T14:06:06.713Z,2.40
2018-07-20T14:08:35.198Z,3.20
2018-07-20T14:11:03.698Z,2.60
2018-07-20T14:13:32.277Z,2.30
2018-07-20T14:16:00.816Z,2.20
2018-07-20T14:18:29.423Z,2.40
2018-07-20T14:20:58.117Z,2.00
2018-07-20T14:23:26.815Z,2.53
2018-07-20T14:25:55.370Z,2.30
2018-07-20T14:28:23.574Z,2.07
2018-07-20T14:30:52.085Z,2.07
2018-07-20T14:33:20.672Z,1.70
2018-07-20T14:35:49.255Z,2.20
2018-07-20T14:38:17.761Z,2.27
2018-07-20T14:40:46.243Z,2.30
2018-07-20T14:43:14.832Z,2.37
2018-07-20T14:45:43.068Z,2.40
2018-07-20T14:48:11.601Z,1.90
2018-07-20T14:50:40.245Z,2.43
2018-07-20T14:53:08.827Z,2.33
2018-07-20T14:55:51.984Z,2.40
2018-07-20T14:58:20.514Z,2.40
2018-07-20T15:00:49.051Z,2.13
2018-07-20T15:03:17.574Z,2.00
2018-07-20T15:05:46.071Z,2.43
2018-07-20T15:08:14.570Z,2.20
2018-07-20T15:10:43.058Z,3.03
2018-07-20T15:13:11.603Z,2.70
2018-07-20T15:15:40.055Z,1.83
2018-07-20T15:18:08.683Z,2.10
2018-07-20T15:20:37.170Z,1.60
2018-07-20T15:23:06.167Z,2.07
2018-07-20T15:25:34.654Z,1.63
2018-07-20T15:28:03.224Z,2.60
2018-07-20T15:30:31.689Z,2.00
2018-07-20T15:33:00.303Z,1.60
2018-07-20T15:35:28.804Z,1.70
2018-07-20T15:37:57.369Z,1.80
2018-07-20T15:40:25.904Z,1.63
2018-07-20T15:42:54.511Z,1.40
2018-07-20T15:45:23.106Z,1.70
2018-07-20T15:47:51.623Z,1.50
2018-07-20T15:50:20.163Z,1.37
2018-07-20T15:53:40.959Z,1.70
2018-07-20T15:55:17.221Z,1.57
2018-07-20T15:57:45.731Z,1.20
2018-07-20T16:00:14.323Z,1.90
2018-07-20T16:02:42.940Z,1.70
2018-07-20T16:05:11.504Z,1.90
2018-07-20T16:07:40.139Z,1.50
2018-07-20T16:10:08.624Z,2.03
2018-07-20T16:12:37.242Z,1.53
2018-07-20T16:15:05.864Z,1.67
2018-07-20T16:17:34.428Z,1.90
2018-07-20T16:20:02.969Z,1.90
2018-07-20T16:22:31.578Z,1.80
2018-07-20T16:25:00.090Z,1.97
2018-07-20T16:27:28.633Z,1.83
2018-07-20T16:29:57.190Z,2.03
2018-07-20T16:32:25.736Z,2.20
2018-07-20T16:34:54.295Z,1.70
2018-07-20T16:37:22.477Z,2.10
2018-07-20T16:39:51.062Z,1.63
2018-07-20T16:42:19.646Z,1.70
2018-07-20T16:44:48.399Z,1.93
2018-07-20T16:47:16.987Z,1.80
2018-07-20T16:49:45.408Z,2.07
2018-07-20T16:52:14.027Z,2.20
2018-07-20T16:54:42.610Z,2.00
2018-07-20T16:57:10.832Z,1.80
2018-07-20T16:59:39.446Z,2.00
2018-07-20T17:02:08.049Z,1.83
2018-07-20T17:04:36.781Z,1.80
2018-07-20T17:07:05.505Z,2.00
2018-07-20T17:09:34.154Z,1.90
2018-07-20T17:12:02.781Z,1.80
2018-07-20T17:14:31.425Z,1.83
2018-07-20T17:16:59.986Z,2.20
2018-07-20T17:19:28.603Z,1.83
2018-07-20T17:21:57.162Z,2.07
2018-07-20T17:24:25.803Z,1.77
2018-07-20T17:26:54.463Z,2.00
2018-07-20T17:29:23.034Z,2.00
2018-07-20T17:31:51.558Z,1.83
2018-07-20T17:34:20.223Z,1.87
2018-07-20T17:36:48.789Z,1.80
2018-07-20T17:39:17.438Z,1.60
2018-07-20T17:41:46.156Z,1.60
2018-07-20T17:44:15.917Z,1.60
2018-07-20T17:46:44.458Z,1.57
2018-07-20T17:49:13.054Z,1.63
2018-07-20T17:51:41.653Z,1.30
2018-07-20T17:54:10.489Z,1.67
2018-07-20T17:56:39.117Z,1.77
2018-07-20T17:59:07.681Z,1.60
2018-07-20T18:01:37.385Z,1.30
2018-07-20T18:04:06.083Z,1.50
2018-07-20T18:06:34.629Z,1.47
2018-07-20T18:09:03.247Z,1.73
2018-07-20T18:11:31.819Z,1.97
2018-07-20T18:14:00.416Z,1.57
2018-07-20T18:16:29.070Z,1.47
2018-07-20T18:18:57.583Z,1.83
2018-07-20T18:21:26.207Z,1.33
2018-07-20T18:23:54.902Z,1.40
2018-07-20T18:26:23.655Z,1.40
2018-07-20T18:28:52.236Z,1.80
2018-07-20T18:31:20.814Z,1.47
2018-07-20T18:33:49.518Z,1.70
2018-07-20T18:36:18.063Z,1.43
2018-07-20T18:38:46.600Z,1.60
2018-07-20T18:41:15.228Z,1.33
2018-07-20T18:43:43.720Z,1.47
2018-07-20T18:46:12.339Z,1.50
2018-07-20T18:48:40.880Z,1.47
2018-07-20T18:51:09.580Z,1.60
2018-07-20T18:53:38.262Z,1.60
2018-07-20T18:56:06.878Z,1.70
2018-07-20T18:58:35.326Z,1.70
2018-07-20T19:01:03.883Z,1.57
2018-07-20T19:03:32.508Z,1.43
2018-07-20T19:06:01.024Z,1.40
2018-07-20T19:08:29.572Z,1.67
2018-07-20T19:10:58.051Z,1.53
2018-07-20T19:13:26.716Z,1.80
2018-07-20T19:15:55.182Z,1.70
2018-07-20T19:18:23.659Z,2.47
2018-07-20T19:20:51.892Z,1.93
2018-07-20T19:23:20.512Z,1.40
2018-07-20T19:25:49.098Z,2.33
2018-07-20T19:28:18.602Z,2.43
2018-07-20T19:30:47.209Z,1.90
2018-07-20T19:33:15.743Z,2.07
2018-07-20T19:35:44.241Z,2.10
2018-07-20T19:38:12.767Z,1.50
2018-07-20T19:40:41.316Z,1.60
2018-07-20T19:43:09.882Z,1.50
2018-07-20T19:45:38.392Z,1.60
2018-07-20T19:48:06.885Z,1.40
2018-07-20T19:50:35.612Z,1.00
2018-07-20T19:53:04.183Z,1.37
2018-07-20T19:55:32.682Z,1.00
2018-07-20T19:58:01.292Z,1.30
2018-07-20T20:00:30.871Z,1.43
2018-07-20T20:02:59.615Z,1.27
2018-07-20T20:05:28.154Z,1.90
2018-07-20T20:07:56.707Z,1.40
2018-07-20T20:10:25.242Z,1.43
2018-07-20T20:12:53.969Z,1.70
2018-07-20T20:15:22.491Z,1.40
2018-07-20T20:17:50.960Z,1.67
2018-07-20T20:20:19.615Z,1.57
2018-07-20T20:22:48.176Z,1.53
2018-07-20T20:25:16.695Z,1.70
2018-07-20T20:27:45.227Z,1.63
2018-07-20T20:30:13.925Z,1.60
2018-07-20T20:32:42.466Z,1.73
2018-07-20T20:35:10.994Z,1.67
2018-07-20T20:37:39.605Z,1.50
2018-07-20T20:40:08.678Z,1.60
2018-07-20T20:42:37.256Z,1.93
2018-07-20T20:45:06.832Z,1.40
2018-07-20T20:47:35.340Z,1.87
2018-07-20T20:50:04.141Z,1.60
2018-07-20T20:52:32.707Z,1.43
2018-07-20T20:55:00.923Z,1.70
2018-07-20T20:57:29.535Z,1.70
2018-07-20T20:59:58.063Z,1.70
2018-07-20T21:02:26.534Z,2.30
2018-07-20T21:04:55.123Z,1.93
2018-07-20T21:07:23.637Z,1.90
2018-07-20T21:09:52.133Z,1.97
2018-07-20T21:12:20.688Z,2.33
2018-07-20T21:14:49.247Z,1.60
2018-07-20T21:17:17.702Z,1.90
2018-07-20T21:19:46.210Z,1.73
2018-07-20T21:22:14.716Z,2.20
2018-07-20T21:24:43.246Z,1.77
2018-07-20T21:27:11.777Z,1.90
2018-07-20T21:29:40.290Z,2.00
2018-07-20T21:32:08.777Z,1.60
2018-07-20T21:34:37.412Z,2.27
2018-07-20T21:37:05.874Z,1.77
2018-07-20T21:39:34.396Z,2.10
2018-07-20T21:42:02.931Z,2.20
2018-07-20T21:44:31.503Z,2.00
2018-07-20T21:46:59.988Z,2.00
2018-07-20T21:49:28.500Z,2.30
2018-07-20T21:51:57.006Z,2.20
2018-07-20T21:54:25.534Z,2.43
2018-07-20T21:56:54.939Z,2.40
2018-07-20T21:59:23.457Z,2.60
2018-07-20T22:01:53.049Z,2.13
2018-07-20T22:04:21.736Z,2.47
2018-07-20T22:06:50.205Z,2.13
2018-07-20T22:09:18.755Z,2.30
2018-07-20T22:11:47.403Z,2.80
2018-07-20T22:14:16.028Z,2.47
2018-07-20T22:16:44.221Z,2.30
2018-07-20T22:19:12.758Z,2.47
2018-07-20T22:21:41.263Z,2.33
2018-07-20T22:24:09.826Z,2.13
2018-07-20T22:26:38.391Z,2.63
2018-07-20T22:29:06.942Z,2.40
2018-07-20T22:31:35.498Z,2.60
2018-07-20T22:34:04.118Z,2.60
2018-07-20T22:36:32.682Z,3.33
2018-07-20T22:39:01.284Z,2.60
2018-07-20T22:41:29.822Z,2.83
2018-07-20T22:43:58.447Z,2.87
2018-07-20T22:46:26.994Z,2.30
2018-07-20T22:48:55.599Z,2.60
2018-07-20T22:51:24.115Z,2.73
2018-07-20T22:53:52.707Z,2.83
2018-07-20T22:56:21.303Z,2.73
2018-07-20T22:58:49.814Z,2.63
2018-07-20T23:01:18.366Z,2.57
2018-07-20T23:03:46.911Z,2.50
2018-07-20T23:06:15.424Z,2.40
2018-07-20T23:08:44.213Z,2.63
2018-07-20T23:11:13.344Z,2.60
2018-07-20T23:13:41.977Z,2.37
2018-07-20T23:16:10.637Z,2.73
2018-07-20T23:18:39.113Z,3.13
2018-07-20T23:21:07.391Z,2.57
2018-07-20T23:23:35.894Z,2.83
2018-07-20T23:26:04.394Z,2.43
2018-07-20T23:28:32.891Z,2.73
2018-07-20T23:31:01.496Z,2.87
2018-07-20T23:33:30.106Z,2.63
2018-07-20T23:35:58.693Z,2.50
2018-07-20T23:38:27.283Z,2.60
2018-07-20T23:40:55.781Z,2.90
2018-07-20T23:43:24.379Z,3.00
2018-07-20T23:45:52.841Z,2.50
2018-07-20T23:48:21.442Z,2.70
2018-07-20T23:50:50.051Z,2.70
2018-07-20T23:53:20.264Z,3.00
2018-07-20T23:55:49.166Z,2.87
2018-07-20T23:58:17.740Z,2.50
